x

9440910 - Toke Point, Wa (tokw1) Weather Station

1:18 - Sat 1st Aug 2015 All times are PDT. -7 hours from GMT.

  • Wind
    6mph, 9mph gusts
  • Sea Temp 55°f
  • Ar Temp 58°f
  • Sea Pressure 1016.9mb
  • 9440910 - Toke Point, Wa
  • 9440910 - Toke Point, Wa

More Historic Weather Station data

Upgrade to MSW Pro to gain access to the past 30 days of data for over 8000 Wavebouys and Weather Stations around the globe.

Join Pro

Comparision Forecast

View Surf forecast
   
Sáb 08/01 1:18 6 9 mph 1016.9mb 55f 58f
1:12 7 8 mph 1017mb 55f 59f
1:06 5 7 mph 1017mb 56f 58f
1:00 5 6 mph 1017.1mb 56f 58f
12:54 2 3 mph 1017.1mb 57f 58f
12:48 2 3 mph 1017.2mb 57f 58f
12:42 2 3 mph 1017.1mb 57f 58f
12:36 2 3 mph 1017.1mb 57f 58f
12:30 1 5 mph 1017.1mb 57f 58f
12:24 2 5 mph 1017mb 58f 59f
12:18 3 6 mph 1017mb 59f 59f
12:12 3 5 mph 1017mb 59f 59f
12:06 3 6 mph 1017mb 60f 59f
12:00 5 7 mph 1017.1mb 59f 59f
Sex 07/31 11:54 5 6 mph 1017mb 59f 59f
11:48  -  mph 1016.9mb 59f 59f
11:42  -  mph 1017mb 60f 59f
11:36  -  mph 1017mb 60f 59f
11:30 3 6 mph 1017mb 60f 59f
11:24 6 7 mph 1017.1mb 62f 59f
11:18 6 7 mph 1017.1mb 61f 59f
11:12 6 7 mph 1017.2mb 61f 58f
11:06 5 7 mph 1017.2mb 62f 59f
11:00 7 8 mph 1017.2mb 62f 59f
10:54 6 7 mph 1017.2mb 62f 59f
10:48 5 6 mph 1017.2mb 62f 59f
10:42 5 6 mph 1017.2mb 63f 59f
10:36 6
mph
1017.3mb 63f 60f
10:30 5 6 mph 1017.3mb 64f 60f
10:24 3 7 mph 1017.2mb 64f 60f
10:18 6 8 mph 1017.3mb 64f 60f
10:12 7 8 mph 1017.2mb 64f 60f
10:06 7 9 mph 1017.2mb 64f 60f
10:00 6 9 mph 1017.2mb 65f 60f
9:54 7 9 mph 1017.2mb 66f 60f
9:48 7 8 mph 1017.3mb 66f 60f
9:42 7 8 mph 1017.3mb 67f 60f
9:36 6 7 mph 1017.3mb 66f 60f
9:30 6 7 mph 1017.2mb 66f 60f
9:24 6 8 mph 1017.2mb 67f 60f
9:18 7 8 mph 1017.2mb 66f 61f
9:12 8
mph
1017.1mb 66f 61f
9:06 6 8 mph 1017mb 67f 61f
9:00 6 7 mph 1016.9mb 68f 61f
8:54 7 8 mph 1016.9mb 68f 62f
8:48 7 8 mph 1016.8mb 68f 63f
8:42 6 7 mph 1016.8mb 68f 64f
8:36 5 6 mph 1016.7mb 68f 64f
8:30 5 6 mph 1016.6mb 68f 64f
8:24 6 8 mph 1016.6mb 69f 65f
8:18 5 8 mph 1016.6mb 69f 66f
8:12 8 10 mph 1016.6mb 70f 66f
8:06 7 10 mph 1016.7mb 70f 66f
8:00 11 14 mph 1016.6mb 70f 66f
7:54 11 17 mph 1016.6mb 70f 67f
7:48 10 14 mph 1016.6mb 70f 67f
7:42 10 14 mph 1016.6mb 70f 67f
7:36 9 11 mph 1016.7mb 70f 67f
7:30 7 8 mph 1016.6mb 70f 68f
7:24 8 10 mph 1016.6mb 69f 68f
7:18 7 11 mph 1016.6mb 70f 69f
7:12 7 10 mph 1016.6mb 70f 69f
7:06 7 10 mph 1016.6mb - 69f
7:00 7 10 mph 1016.7mb - 69f
6:54 6 8 mph 1016.6mb 69f 69f
6:48 6 10 mph 1016.7mb 69f 70f
6:42 10 13 mph 1016.7mb 70f 69f
6:36 10 13 mph 1016.7mb 70f 70f
6:30 7 10 mph 1016.8mb 70f 70f
6:24 10 13 mph 1016.8mb 69f 70f
6:18 9 14 mph 1016.8mb 69f 71f
6:12 11 13 mph 1016.9mb 69f 71f
6:06 10 14 mph 1017mb 69f 71f
6:00 11 15 mph 1017mb 68f 72f
5:54 13 17 mph 1017.1mb 67f 72f
5:48 11 16 mph 1017.2mb 67f 72f
5:42 11 16 mph 1017.2mb 67f 73f
5:36 11 14 mph 1017.3mb 67f 73f
5:30 13 16 mph 1017.3mb 67f 73f
5:24 11 16 mph 1017.3mb 66f 73f
5:18 14 16 mph 1017.4mb 66f 73f
5:12 15 18 mph 1017.5mb 65f 73f
5:06 15 17 mph 1017.5mb 66f 74f
5:00 14 17 mph 1017.5mb 66f 73f
4:54 13 18 mph 1017.5mb 65f 74f
4:48 13 15 mph 1017.6mb 65f 74f
4:42 14 17 mph 1017.6mb 64f 74f
4:36 14 17 mph 1017.7mb 65f 74f
4:00 15 17 mph 1018.1mb 62f 73f
3:54 14 18 mph 1018.2mb 61f 73f
3:48 15 18 mph 1018.2mb 60f 73f
3:42 14 15 mph 1018.2mb 60f 74f
3:36 14 16 mph 1018.3mb 61f 74f
3:30 11 16 mph 1018.4mb 57f 73f
3:24 13 15 mph 1018.5mb 59f 74f
3:18 14 15 mph 1018.5mb 57f 74f
3:12 13 16 mph 1018.5mb 59f 74f
3:06 11 14 mph 1018.5mb 56f 74f
3:00 13 17 mph 1018.5mb 57f 74f
2:54 11 15 mph 1018.5mb 58f 73f
2:48 13 14 mph 1018.6mb 57f 73f
2:42 11 14 mph 1018.6mb 56f 74f
2:36 10 15 mph 1018.6mb 56f 73f
2:30 11 14 mph 1018.6mb 55f 74f
2:24 10 14 mph 1018.6mb 54f 74f
2:18 10 15 mph 1018.6mb 54f 74f
2:12 10 16 mph 1018.6mb 54f 74f
2:06 11 13 mph 1018.6mb 55f 74f
2:00 11 15 mph 1018.6mb 55f 74f
1:54 10 13 mph 1018.6mb 55f 74f
1:48 8 13 mph 1018.7mb 56f 75f
1:42 9 15 mph 1018.7mb 56f 74f
1:36 9 11 mph 1018.8mb 56f 74f
1:30 6 8 mph 1018.8mb 57f 72f
1:24 7 10 mph 1018.8mb 58f 73f
1:18 6 9 mph 1018.8mb 59f 72f
1:12 8 11 mph 1018.8mb 59f 72f
1:06 11 14 mph 1018.7mb 59f 74f
1:00 11 14 mph 1018.7mb 59f 74f
12:54 11 14 mph 1018.8mb 59f 75f
12:48 11 15 mph 1018.8mb 60f 75f
12:42 13 14 mph 1018.8mb 62f 74f
12:36 10 13 mph 1018.8mb 63f 74f
12:30 9 10 mph 1018.8mb 63f 73f
12:24 7 8 mph 1018.8mb 63f 73f
12:18 3 5 mph 1018.9mb 63f 72f
12:12 1 3 mph 1018.9mb 64f 73f
12:06 1 3 mph 1018.9mb 63f 71f
12:00 3 5 mph 1018.9mb 64f 68f
11:54 3 6 mph 1019mb 63f 68f
11:48 3 5 mph 1019mb 65f 68f
11:42 3 5 mph 1019mb 64f 67f
11:36 5
mph
1019.1mb 65f 66f
11:30 5
mph
1019.1mb 65f 65f
11:24 5 6 mph 1019.1mb 65f 64f
11:18 6
mph
1019.1mb 65f 64f
11:12 6 8 mph 1019.2mb 65f 64f
11:06 6 8 mph 1019.3mb 65f 64f
11:00 7 8 mph 1019.3mb 65f 63f
10:54 7 9 mph 1019.3mb 65f 64f
10:48 7 8 mph 1019.3mb 65f 63f
10:42 7 9 mph 1019.4mb 65f 62f
10:36 7 8 mph 1019.4mb 65f 62f
10:30 6 8 mph 1019.3mb 65f 62f
10:24 6 8 mph 1019.4mb 66f 61f
10:18 6 7 mph 1019.4mb 65f 60f
10:12 5 6 mph 1019.4mb 65f 60f
10:06 5 6 mph 1019.4mb 65f 60f
10:00 3
mph
1019.4mb 66f 61f
9:54 2
mph
1019.4mb 66f 61f
9:48 2
mph
1019.5mb 65f 60f
9:42 2 3 mph 1019.5mb 66f 60f
9:36 3
mph
1019.5mb 66f 59f
9:30 3 5 mph 1019.5mb 66f 59f
9:24 5
mph
1019.5mb 66f 59f
9:18 2 5 mph 1019.6mb 66f 59f
9:12 3 6 mph 1019.6mb 66f 59f
9:06 2 5 mph 1019.6mb 66f 59f
9:00 3 6 mph 1019.6mb 66f 59f
8:54 3 5 mph 1019.7mb 66f 58f
8:48 3 7 mph 1019.7mb 66f 58f
8:42 5 6 mph 1019.6mb 67f 58f
8:36 6
mph
1019.6mb 66f 58f
8:30 6 7 mph 1019.6mb 66f 58f
8:24 3 6 mph 1019.7mb 66f 57f
8:18 3 5 mph 1019.7mb 67f 57f
8:12 5 6 mph 1019.7mb 67f 56f
8:06 2 3 mph 1019.6mb 66f 56f
8:00 2 3 mph 1019.6mb 65f 55f
7:54 2 3 mph 1019.6mb 62f 55f
7:48 2 3 mph 1019.6mb 66f 55f
7:42 2 3 mph 1019.6mb 66f 55f
7:36 2 3 mph 1019.6mb 66f 55f
7:30 2 5 mph 1019.5mb 66f 55f
7:24 2 5 mph 1019.5mb 66f 55f
7:18 3 5 mph 1019.5mb 65f 55f
7:12 3 6 mph 1019.5mb 65f 55f
7:06 5 6 mph 1019.3mb 65f 55f
7:00 5 6 mph 1019.3mb 65f 55f
6:54 5 6 mph 1019.3mb 65f 55f
6:48 5 6 mph 1019.2mb 64f 55f
6:42 3 7 mph 1019.1mb 64f 55f
6:36 5 6 mph 1019mb 64f 55f
6:30 6
mph
1019mb 64f 55f
6:24 6
mph
1019mb 63f 55f
6:18 5 6 mph 1019mb 63f 55f
6:12 5 6 mph 1019mb 62f 55f
6:06 5 6 mph 1018.9mb 62f 55f
6:00 3 6 mph 1018.8mb 62f 55f
5:54 3 6 mph 1018.7mb 62f 55f
5:48 5 7 mph 1018.6mb 62f 55f
5:42 6 7 mph 1018.6mb 64f 56f
5:36 6 7 mph 1018.5mb 63f 56f
5:30 6 7 mph 1018.4mb 62f 56f
5:24 6 7 mph 1018.5mb 63f 56f
5:18 7 8 mph 1018.4mb 62f 56f
5:12 7 9 mph 1018.4mb 63f 56f
5:06 8 10 mph 1018.4mb 63f 56f
5:00 8 9 mph 1018.4mb 62f 56f
4:54 8 9 mph 1018.3mb 62f 56f
4:48 8 9 mph 1018.4mb 62f 56f
4:42 8 9 mph 1018.4mb 62f 56f
4:36 8 9 mph 1018.4mb 62f 56f
4:30 8 9 mph 1018.4mb 62f 56f
4:24 9 10 mph 1018.4mb 62f 56f
4:18 7 8 mph 1018.5mb 62f 56f
4:12 7 8 mph 1018.4mb 62f 56f
4:06 7 8 mph 1018.4mb 62f 57f
4:00 7
mph
1018.4mb 61f 57f
3:54 6 7 mph 1018.5mb 62f 57f
3:48 6 7 mph 1018.5mb 61f 57f
3:42 5 6 mph 1018.5mb 61f 56f
3:36 5
mph
1018.4mb 61f 56f
3:30 5 7 mph 1018.4mb 62f 58f
3:24 6
mph
1018.4mb 61f 58f
3:18 5
mph
1018.4mb 61f 58f
3:12 5 7 mph 1018.4mb 61f 57f
3:06 6
mph
1018.4mb 61f 57f
3:00 6
mph
1018.4mb 61f 57f
2:54 5 6 mph 1018.3mb 61f 56f
2:48 3 6 mph 1018.3mb 61f 56f
2:42 6
mph
1018.3mb 61f 57f
2:36 6
mph
1018.3mb 60f 57f
2:30 6 7 mph 1018.3mb 60f 58f
2:24 6 7 mph 1018.3mb 60f 58f
2:18 6
mph
1018.3mb 59f 58f
2:12 5 6 mph 1018.3mb 60f 58f
2:06 6
mph
1018.2mb 59f 59f
2:00 5 6 mph 1018.2mb 60f 59f
1:54 5 6 mph 1018.2mb 60f 59f
1:48 5 6 mph 1018.2mb 60f 59f
1:42 5 6 mph 1018.2mb 59f 60f
1:36 5 6 mph 1018.1mb 59f 60f
1:30 5 7 mph 1018.1mb 59f 60f
1:24 6 8 mph 1018.1mb 58f 61f
1:18 6 8 mph 1018.1mb 58f 61f
1:12 6 7 mph 1018.1mb 58f 61f
1:06 6 7 mph 1018.1mb 58f 61f
1:00 6 7 mph 1018.1mb 57f 62f
12:54 6 8 mph 1018.1mb 57f 62f
12:48 5 8 mph 1018.2mb 57f 62f
12:42 7 8 mph 1018.2mb 57f 62f
12:36 6 8 mph 1018.1mb 57f 62f
12:30 6 8 mph 1018.1mb 57f 62f
12:24 6 9 mph 1018.1mb 57f 62f
12:18 8 11 mph 1018.1mb 58f 63f
12:12 6 9 mph 1018.1mb 58f 63f
12:06 9 10 mph 1018.1mb 58f 63f
12:00 8 10 mph 1018.1mb 58f 63f
Qui 07/30 11:54 8 10 mph 1018mb 58f 63f
11:48 6 8 mph 1018mb 58f 64f
11:42 3 6 mph 1018.1mb 59f 64f
11:36 6 7 mph 1018.1mb 59f 64f
11:30 6 8 mph 1018mb 60f 64f
11:24 7 8 mph 1018mb 60f 64f
11:18 6
mph
1018.1mb 60f 64f
11:12 6 7 mph 1018.2mb 62f 65f
11:06 5 7 mph 1018.1mb 61f 65f
11:00 3 6 mph 1018.2mb 62f 65f
10:54 2 5 mph 1018.1mb 61f 65f
10:48 1 5 mph 1018.1mb 61f 65f
10:42 3 6 mph 1018.1mb 62f 65f
10:36 5 6 mph 1018.1mb 62f 64f
10:30 5 7 mph 1018.1mb 62f 64f
10:24 5 6 mph 1018mb 63f 64f
10:18 5 6 mph 1018mb 63f 64f
10:12 5 6 mph 1018mb 63f 64f
10:06 3 6 mph 1017.9mb 64f 64f
10:00 6 7 mph 1017.9mb 65f 65f
9:54 3 6 mph 1017.9mb 64f 65f
9:48 5 9 mph 1017.8mb 65f 65f
9:42 7 8 mph 1017.7mb 66f 66f
9:36 7 13 mph 1017.7mb 66f 66f
9:30 11 14 mph 1017.6mb 65f 66f
9:24 10 14 mph 1017.5mb 67f 67f
9:18 10 15 mph 1017.4mb 67f 67f
9:12 7 13 mph 1017.3mb 67f 67f
9:06 8 10 mph 1017.2mb 68f 68f
9:00 6 8 mph 1017.2mb 67f 68f
8:54 7 11 mph 1017.1mb 68f 68f
8:48 9 13 mph 1017mb 67f 68f
8:42 7 9 mph 1017mb 69f 69f
8:36 6 11 mph 1017mb 67f 69f
8:30 6 11 mph 1017mb 69f 69f
8:24 9 14 mph 1016.9mb 69f 70f
8:18 10 15 mph 1016.9mb 68f 70f
8:12 8 15 mph 1016.8mb 68f 70f
8:06 7 10 mph 1016.9mb 68f 70f
8:00 7 11 mph 1016.9mb 68f 71f
7:54 10 16 mph 1017mb 68f 71f
7:48 7 11 mph 1017mb 69f 71f
7:42 13 17 mph 1016.9mb 69f 71f
7:36 10 18 mph 1016.9mb 69f 72f
7:30 16 18 mph 1016.8mb 69f 72f
7:24 11 21 mph 1016.8mb 71f 72f
7:18 17 21 mph 1016.8mb - 73f
7:12 17 22 mph 1016.7mb - 73f
7:06 18 23 mph 1016.7mb - 73f
7:00 21 24 mph 1016.6mb - 73f
6:54 22 25 mph 1016.6mb - 73f
6:48 22 29 mph 1016.6mb - 74f
6:42 23 28 mph 1016.6mb - 74f
6:36 21 28 mph 1016.6mb - 74f
6:30 22 29 mph 1016.7mb - 74f
6:24 25 29 mph 1016.7mb - 75f
6:18 25 31 mph 1016.8mb - 75f
6:12 25 32 mph 1016.8mb - 75f
6:06 25 30 mph 1016.8mb - 76f
6:00 26 30 mph 1016.8mb - 76f
5:54 25 31 mph 1016.9mb - 76f
5:48 22 28 mph 1016.9mb - 77f
5:42 23 28 mph 1016.9mb - 77f
5:36 22 24 mph 1017mb - 78f
5:30 17 22 mph 1017mb - 78f
5:24 20 21 mph 1017mb - 78f
5:18 18 22 mph 1017mb - 78f
5:12 18 21 mph 1016.9mb 70f 78f
5:06 20 25 mph 1016.9mb 70f 78f
5:00 24 29 mph 1017mb 69f 78f
4:54 21 28 mph 1017mb 69f 78f
4:48 18 22 mph 1017mb 69f 78f
4:42 20 24 mph 1017mb 68f 79f
4:36 20 24 mph 1017mb 68f 79f
4:30 18 25 mph 1017mb 68f 79f
4:24 22 25 mph 1017mb 68f 80f
4:18 20 26 mph 1017mb 67f 80f
4:12 20 22 mph 1017mb 68f 80f
4:06 20 22 mph 1017.1mb 68f 80f
4:00 21 24 mph 1017.1mb 67f 80f
3:54 23 28 mph 1017.1mb 67f 80f
3:48 22 26 mph 1017.2mb 67f 80f
3:42 21 25 mph 1017.2mb 67f 80f
3:36 22 24 mph 1017.2mb 67f 81f
3:30 20 23 mph 1017.2mb 67f 80f
3:24 20 26 mph 1017.3mb 67f 80f
3:18 22 24 mph 1017.3mb 64f 80f
3:12 23 26 mph 1017.3mb 63f 80f
3:06 22 24 mph 1017.3mb 64f 80f
3:00 20 22 mph 1017.4mb 64f 80f
2:54 20 21 mph 1017.4mb 62f 80f
2:48 18 23 mph 1017.5mb 59f 80f
2:42 18 22 mph 1017.5mb 61f 80f
2:36 15 20 mph 1017.6mb 60f 80f
2:30 14 17 mph 1017.6mb 61f 81f
2:24 14 16 mph 1017.5mb 62f 82f
2:18 15 17 mph 1017.6mb 58f 82f
2:12 15 18 mph 1017.5mb 58f 82f
2:06 14 17 mph 1017.6mb 57f 82f
2:00 15 17 mph 1017.6mb 57f 82f
1:54 14 17 mph 1017.6mb 57f 81f
1:48 14 17 mph 1017.6mb 57f 81f
1:42 15 18 mph 1017.6mb 57f 82f
1:36 16 18 mph 1017.6mb 57f 82f
1:30 17 18 mph 1017.7mb 57f 83f
1:24 16 22 mph 1017.7mb 58f 83f
1:18 16 20 mph 1017.7mb 58f 83f
1:12 14 18 mph 1017.6mb 58f 84f
1:06 14 15 mph 1017.7mb 59f 85f
1:00 14 15 mph 1017.7mb 59f 84f
12:54 9 13 mph 1017.7mb 60f 82f
12:48 9 13 mph 1017.7mb 60f 85f
12:42 6 9 mph 1017.7mb 60f 85f
12:36 9 14 mph 1017.7mb 61f 84f
12:30 13 15 mph 1017.8mb 62f 85f
12:24 13 14 mph 1017.8mb 62f 84f
12:18 7 11 mph 1017.8mb 63f 83f
12:12 8 11 mph 1017.9mb 63f 84f
12:06 11 14 mph 1018mb 63f 82f
12:00 11 15 mph 1018mb 64f 82f
11:54 9 14 mph 1018mb 64f 81f
11:48 8 9 mph 1018mb 64f 80f
11:42 7 10 mph 1018mb 64f 81f
11:36 8 13 mph 1018.1mb 65f 81f
11:30 10 17 mph 1018.1mb 65f 81f
11:24 15 17 mph 1018mb 65f 82f
11:18 13 16 mph 1018mb 65f 81f
11:12 10 13 mph 1018.1mb 65f 80f
11:06 9 11 mph 1018.1mb 67f 79f
11:00 11 14 mph 1018.1mb 66f 79f
10:54 10 16 mph 1018.1mb 66f 79f
10:48 11 15 mph 1018.1mb 66f 79f
10:42 10 11 mph 1018.1mb 67f 78f
10:36 9 14 mph 1018.1mb 67f 78f
10:30 13 14 mph 1018.2mb 67f 78f
10:24 10 13 mph 1018.1mb 67f 77f
10:18 10 14 mph 1018.1mb 66f 78f
10:12 10 13 mph 1018.1mb 66f 77f
10:06 7 9 mph 1018.1mb 67f 75f
10:00 8 10 mph 1018.2mb 67f 75f
9:54 9 11 mph 1018.2mb 67f 75f
9:48 9 10 mph 1018.2mb 67f 75f
9:42 8 10 mph 1018.2mb 67f 75f
9:36 7
mph
1018.2mb 68f 74f
9:30 7 9 mph 1018.2mb 67f 74f
9:24 6 8 mph 1018.3mb 67f 73f
9:18 6 7 mph 1018.3mb 67f 73f
9:12 6 7 mph 1018.4mb 67f 73f
9:06 6 7 mph 1018.4mb 67f 73f
9:00 6 8 mph 1018.4mb 67f 72f
8:54 8
mph
1018.4mb 67f 72f
8:48 7 8 mph 1018.4mb 67f 72f
8:42 3 5 mph 1018.5mb 67f 70f
8:36 3
mph
1018.5mb 67f 70f
8:24 5 7 mph 1018.4mb 68f 69f
8:18 7 8 mph 1018.4mb 68f 68f
8:12 8 9 mph 1018.4mb 68f 67f
8:06 9
mph
1018.5mb 68f 67f
8:00 9 10 mph 1018.5mb 68f 67f
7:54 10
mph
1018.5mb 68f 66f
7:48 9
mph
1018.5mb 68f 66f
7:42 9 10 mph 1018.5mb 68f 66f
7:36 9
mph
1018.5mb 68f 66f
7:24 9 10 mph 1018.4mb 68f 65f
7:18 10 11 mph 1018.4mb 68f 65f
7:12 11
mph
1018.3mb 68f 65f
7:06 10 11 mph 1018.3mb 68f 64f
7:00 10
mph
- - -
6:48 8 9 mph 1018.2mb 67f 63f
6:42 8 9 mph 1018.2mb 67f 63f
6:36 8 9 mph 1018.2mb 67f 62f
6:30 8
mph
1018.1mb 67f 63f
6:24 6 7 mph 1018.1mb 67f 62f
6:18 6 9 mph 1018mb 66f 62f
6:06 9 10 mph 1017.8mb 65f 62f
6:00 9 11 mph 1017.8mb 66f 62f
5:54 9 11 mph 1017.8mb 66f 62f
5:48  -  mph - - 61f
5:42  -  mph - - 62f
5:30  -  mph - - 61f
5:24  -  mph - - 62f
5:18  -  mph - - 62f
5:12  -  mph - - 62f
5:06  -  mph - - 62f
5:00  -  mph - - 62f
Qua 07/29 8:36  -  mph - - 69f
8:30  -  mph - - 69f
8:24  -  mph - - 70f
8:18  -  mph - - 71f
8:12  -  mph - - 71f
8:06  -  mph - - 71f
8:00  -  mph - - 71f
7:54  -  mph - - 72f
7:48  -  mph - - 72f
7:42  -  mph - - 72f
7:36  -  mph - - 72f
7:30  -  mph - - 72f
7:24  -  mph - - 73f
7:18  -  mph - - 72f
7:12  -  mph - - 73f
7:06  -  mph - - 72f
7:00  -  mph - - 73f
6:54  -  mph - - 73f
6:48 28 31 mph 1018mb - 73f
6:42 25 28 mph 1018.1mb - 73f
6:36 25 29 mph 1018.1mb 70f 73f
6:30  -  mph - - 73f
6:24  -  mph - - 73f
6:18  -  mph - - 74f
6:12  -  mph - - 74f
6:06  -  mph - - 74f
6:00  -  mph - - 74f
5:54  -  mph - - 74f
5:48 26 29 mph 1018.4mb - 74f
5:42 28 31 mph 1018.5mb - 75f
5:36 25 29 mph 1018.6mb - 75f
5:30  -  mph 1018.6mb - 75f
5:24  -  mph 1018.6mb - 75f
5:18  -  mph 1018.7mb - 76f
5:12  -  mph 1018.7mb - 76f
5:06  -  mph 1018.8mb - 76f
5:00  -  mph - - 76f
4:54  -  mph - - 76f
4:48  -  mph - - 76f
4:42  -  mph - - 76f
4:36  -  mph - - 76f
4:30  -  mph - - 76f
4:24  -  mph - - 76f
4:18  -  mph - - 76f
4:12  -  mph - - 76f
4:06  -  mph - 70f 75f
4:00 21 23 mph 1019.1mb 70f 75f
3:54 20 23 mph 1019.2mb 70f 76f
3:48 21 24 mph 1019.2mb 70f 77f
3:42 21 23 mph 1019.2mb 69f 77f
3:36 21 22 mph 1019.3mb 69f 77f
3:30  -  mph - 69f 77f
3:24  -  mph - 69f 78f
3:18  -  mph - - 77f
3:12  -  mph - - 77f
3:06  -  mph - - 77f
3:00  -  mph - 69f 78f
2:54  -  mph - 68f 77f
2:48  -  mph - 67f 78f
2:42  -  mph - 65f 78f
2:36  -  mph - 65f 79f
2:30  -  mph - 66f 78f
2:24  -  mph - 67f 79f
2:18  -  mph - 66f 79f
2:12  -  mph - 64f 79f
2:06  -  mph - 62f 80f
2:00  -  mph 1019.8mb 64f 80f
1:54  -  mph 1019.9mb 64f 80f
1:48  -  mph 1019.9mb 62f 80f
1:42  -  mph 1019.9mb 62f 80f
1:36  -  mph 1019.9mb 63f 80f
1:30  -  mph 1019.9mb 64f 82f
1:24  -  mph 1019.9mb 63f 83f
1:18  -  mph - - 83f
1:12  -  mph - - 83f
1:06  -  mph - - 82f
1:00  -  mph - - 82f
12:54  -  mph - - 80f
12:48  -  mph - - 81f
12:42  -  mph - - 81f
12:36  -  mph - - 80f
12:30  -  mph - - 80f
12:24  -  mph - - 79f
12:18  -  mph - - 79f
12:12  -  mph - - 79f
12:06  -  mph - - 78f
12:00  -  mph - - 78f
11:54  -  mph - - 78f
11:48  -  mph - - 77f
11:42  -  mph - - 76f
11:36  -  mph - - 76f
11:30  -  mph - - 74f
11:24  -  mph - - 73f
11:18  -  mph - - 73f
11:12  -  mph - - 72f
11:06  -  mph - - 72f
11:00  -  mph - - 71f
10:54  -  mph - - 72f
10:48  -  mph - - 72f
10:42  -  mph - - 71f
10:36  -  mph - - 70f
10:30  -  mph - - 70f
10:24  -  mph - - 70f
10:18 2 3 mph 1021.4mb 67f 69f
10:12 1 3 mph 1021.4mb 67f 71f
10:06  -  1 mph 1021.4mb 67f 71f
10:00  -  1 mph 1021.5mb 67f 72f
9:54  -  1 mph 1021.5mb 66f 71f
9:48  -  1 mph 1021.5mb 67f 71f
8:54  -  1 mph 1021.6mb 67f 66f
8:48  -  1 mph 1021.6mb 67f 65f
8:42  -  1 mph 1021.7mb 67f 65f
8:36  -  2 mph 1021.7mb 67f 65f
8:30 1 2 mph 1021.7mb 68f 64f
8:24 1 2 mph 1021.7mb 68f 64f
8:18 2
mph
1021.7mb 67f 64f
8:12  -  2 mph 1021.7mb 67f 63f
8:06 1 2 mph 1021.7mb 67f 63f
8:00 2 3 mph 1021.7mb 68f 63f
7:54 3 8 mph 1021.6mb 68f 62f
7:48  -  mph 1021.6mb - -
7:42 6 7 mph 1021.6mb 68f 61f
7:36 5 6 mph 1021.6mb 68f 61f
7:30 1 3 mph 1021.6mb 68f 61f
7:24 2 5 mph 1021.6mb 68f 61f
7:18 2
mph
1021.6mb 68f 61f
7:12  -  3 mph 1021.6mb 69f 61f
7:06 3 5 mph 1021.6mb 69f 60f
7:00 2 3 mph 1021.6mb 69f 60f
6:54 2 5 mph 1021.6mb 68f 60f
6:48 3 5 mph 1021.5mb 69f 59f
6:42 3 6 mph 1021.5mb 69f 59f
6:36 6 7 mph 1021.5mb 69f 59f
6:30 3 6 mph 1021.4mb 69f 59f
6:24 5 7 mph 1021.4mb 68f 58f
6:18 6 7 mph 1021.4mb 68f 58f
6:12 6 7 mph 1021.4mb 67f 58f
6:06 7 8 mph 1021.3mb 67f 59f
6:00 3
mph
1021.3mb 67f 59f
5:54 2 3 mph 1021.3mb 67f 59f
5:48 2 5 mph 1021.3mb 67f 59f
5:42 3 6 mph 1021.3mb 67f 59f
5:36 5 6 mph 1021.3mb 67f 58f
5:30 5 6 mph 1021.3mb 67f 58f
5:24 5 6 mph 1021.4mb 66f 58f
5:18 5 6 mph 1021.5mb 66f 58f
5:12 6 7 mph 1021.4mb 67f 58f
5:06 6 8 mph 1021.5mb 66f 58f
5:00 7 8 mph 1021.5mb 66f 58f
4:54 8 9 mph 1021.4mb 67f 58f
4:48 8
mph
1021.5mb 65f 58f
4:42 6 7 mph 1021.5mb 65f 57f
4:36 5 6 mph 1021.6mb 66f 57f
4:30 5 6 mph 1021.6mb 66f 57f
4:24 5 6 mph 1021.6mb 66f 57f
4:18 6 7 mph 1021.6mb 66f 57f
4:12 6 7 mph 1021.5mb 66f 58f
4:06 6
mph
1021.5mb 66f 60f
4:00 3
mph
1021.5mb 66f 60f
3:54 2 5 mph 1021.4mb 66f 60f
3:48 3 6 mph 1021.4mb 66f 59f
3:42 5 6 mph 1021.4mb 66f 59f
3:36 6 7 mph 1021.5mb 66f 59f
3:30 6 7 mph 1021.5mb 66f 59f
3:24 6 7 mph 1021.6mb 66f 59f
3:18 6 7 mph 1021.5mb 66f 59f
3:12 6 7 mph 1021.6mb 66f 59f
3:06 6 7 mph 1021.6mb 66f 59f
3:00 6 8 mph 1021.6mb 66f 59f
2:54 6 8 mph 1021.5mb 66f 59f
2:48 7 9 mph 1021.6mb 66f 59f
2:42 7 10 mph 1021.6mb 66f 59f
2:36 8 10 mph 1021.7mb 66f 59f
2:30 6 7 mph 1021.8mb 65f 59f
2:24 6 7 mph 1021.8mb 65f 59f
2:18 7
mph
1021.8mb 65f 58f
2:12 7 8 mph 1021.8mb 65f 58f
2:06 7 8 mph 1021.9mb 65f 58f
2:00 6 8 mph 1021.9mb 65f 59f
1:54 7 8 mph 1021.9mb 65f 59f
1:48 6 7 mph 1021.9mb 65f 59f
1:42 6 7 mph 1021.9mb 65f 59f
1:36 7 9 mph 1022mb 65f 59f
1:30 8 9 mph 1022.1mb 65f 59f
1:24 8
mph
1022.1mb 65f 58f
1:18 7 8 mph 1022.1mb 65f 59f
1:12 7 8 mph 1022.2mb 65f 59f
1:06 8 9 mph 1022.3mb 65f 59f
1:00 8 9 mph 1022.3mb 65f 59f
12:54 8
mph
1022.3mb 65f 59f
12:48 8 9 mph 1022.3mb 65f 59f
12:42 8 9 mph 1022.4mb 65f 59f
12:36 7
mph
1022.4mb 65f 59f
12:30 6 7 mph 1022.4mb 64f 59f
12:24 6 7 mph 1022.5mb 64f 59f
12:18 5 7 mph 1022.5mb 64f 60f
12:12 6 8 mph 1022.6mb 64f 59f
12:06 7 8 mph 1022.5mb 64f 59f
12:00 7 9 mph 1022.5mb 64f 60f
Ter 07/28 11:54 7 8 mph 1022.5mb 64f 60f
11:48 6 7 mph - 63f 60f
11:42 5 6 mph - 63f 61f
11:36 3 5 mph - 62f 61f
11:30 3 6 mph 1022.7mb 62f 61f
11:24 6 7 mph 1022.7mb 62f 61f
11:18 5 6 mph 1022.8mb 62f 61f
11:12 3 5 mph 1022.8mb 62f 61f
11:06 5 6 mph 1022.9mb 62f 61f
11:00 5 7 mph 1022.9mb 62f 61f
10:54 6 7 mph 1023mb 62f 61f
10:48 5 6 mph 1022.9mb 63f 62f
10:42 3 5 mph 1023mb 63f 62f
10:36 3 6 mph 1022.9mb 63f 62f
10:30 3 5 mph 1022.9mb 63f 62f
10:24 3 5 mph 1022.9mb 63f 62f
10:18 5 7 mph 1022.9mb 63f 62f
10:12 5 10 mph 1022.8mb 64f 62f
10:06 7 10 mph 1022.8mb 64f 62f
10:00 9 13 mph 1022.8mb 64f 62f
9:54 10 13 mph 1022.8mb 64f 62f
9:48 8 11 mph 1022.8mb 65f 62f
9:42 8 10 mph 1022.8mb 65f 62f
9:36 9 11 mph 1022.7mb 65f 62f
9:30 8 13 mph 1022.7mb 65f 62f
9:24 8 14 mph 1022.7mb 65f 62f
9:18 10 14 mph 1022.6mb 66f 62f
9:12 11 14 mph 1022.7mb 66f 62f
9:06 8 11 mph 1022.6mb 66f 63f
9:00 7 10 mph 1022.6mb 66f 63f
8:54 10 13 mph 1022.6mb 66f 63f
8:48 10 14 mph 1022.6mb 67f 63f
8:42 9 13 mph 1022.6mb 67f 63f
8:36 11 18 mph 1022.6mb 67f 64f
8:30 15 18 mph 1022.5mb 67f 64f
8:24 15 17 mph 1022.5mb 67f 64f
8:18 15 17 mph 1022.6mb 68f 65f
8:12 14 18 mph 1022.5mb 67f 65f
8:06 16 20 mph 1022.6mb 68f 65f
8:00 17 21 mph 1022.6mb 67f 65f
7:54 14 18 mph 1022.5mb 68f 66f
7:48 13 16 mph 1022.5mb 67f 66f
7:42 14 16 mph 1022.5mb 69f 66f
7:36 9 14 mph 1022.4mb 68f 66f
7:30 10 14 mph 1022.4mb 68f 66f
7:24 13 17 mph 1022.4mb 68f 66f
7:18 14 15 mph 1022.4mb 68f 66f
7:12 14 16 mph 1022.5mb 69f 66f
7:06 10 15 mph 1022.5mb 69f 67f
7:00 14 18 mph 1022.5mb 70f 66f
6:54 16 18 mph 1022.5mb 68f 66f
6:48 7 11 mph 1022.6mb 69f 67f
6:42 10 14 mph 1022.5mb 69f 67f
6:36 10 16 mph 1022.5mb 70f 67f
6:30 14 17 mph 1022.5mb 70f 67f
6:24 10 15 mph 1022.6mb 69f 67f
6:18 11 15 mph 1022.6mb 68f 68f
6:12 11 17 mph 1022.6mb 69f 68f
6:06 16 21 mph 1022.6mb 69f 67f
6:00 16 22 mph 1022.6mb 69f 68f
5:54 17 21 mph 1022.5mb 70f 67f
5:48 11 16 mph 1022.5mb - 68f
5:42 13 20 mph 1022.5mb - 68f
5:36 16 18 mph 1022.5mb - 68f
5:30 14 21 mph 1022.6mb - 69f
5:24 17 21 mph 1022.6mb - 68f
5:18 18 21 mph 1022.6mb - 68f
5:12 18 21 mph 1022.6mb - 68f
5:06 15 20 mph 1022.6mb - 69f
5:00 17 20 mph 1022.6mb - 69f
4:54 17 20 mph 1022.6mb 70f 69f
4:48 14 16 mph 1022.7mb - 70f
4:42 14 17 mph 1022.7mb - 70f
4:36 11 17 mph 1022.7mb - 71f
4:30 14 17 mph 1022.7mb - 70f
4:24 14 16 mph 1022.7mb 70f 70f
4:18 16 20 mph 1022.8mb 69f 70f
4:12 16 20 mph 1022.9mb 70f 70f
4:06 15 17 mph 1022.9mb 70f 70f
4:00 16 20 mph 1022.9mb 70f 70f
3:54 15 20 mph 1023mb - 70f
3:48 16 21 mph 1023mb - 70f
3:42 16 22 mph 1023mb 71f 70f
3:36 15 20 mph 1023mb 70f 70f
3:30 17 21 mph 1023mb 70f 70f
3:24 16 21 mph 1023.1mb 69f 69f
3:18 16 20 mph 1023.2mb 69f 70f
3:12 15 18 mph 1023.2mb 69f 70f
3:06 16 18 mph 1023.2mb 69f 71f
3:00 14 16 mph 1023.3mb 69f 71f
2:54 13 16 mph 1023.3mb 69f 71f
2:48 14 16 mph 1023.4mb 69f 71f
2:42 15 17 mph 1023.4mb 68f 72f
2:36 14 15 mph 1023.4mb 68f 72f
2:30 14 16 mph 1023.4mb 66f 71f
2:24 14 16 mph 1023.5mb 68f 71f
2:18 14 16 mph 1023.6mb 68f 71f
2:12 14 17 mph 1023.7mb 68f 71f
2:06 13 15 mph 1023.7mb 68f 71f
2:00 15 17 mph 1023.7mb 68f 71f
1:54 15 17 mph 1023.7mb 68f 70f
1:48 16 20 mph 1023.7mb 67f 70f
1:42 15 18 mph 1023.7mb 67f 70f
1:36 16 17 mph 1023.7mb 67f 70f
1:30 14 16 mph 1023.8mb 67f 70f
1:24 14 16 mph 1023.8mb 66f 70f
1:18 9 11 mph 1023.9mb 66f 71f
1:12 11 14 mph 1023.9mb 65f 70f
1:06 9 11 mph 1023.9mb 65f 71f
1:00 7 10 mph 1024mb 65f 71f
12:54 8 10 mph 1024mb 65f 71f
12:48 2 8 mph 1024.1mb 66f 72f
12:42 8 9 mph 1024.2mb 65f 70f
12:36 7 9 mph 1024.2mb 65f 69f
12:30 7 9 mph 1024.3mb 64f 68f
12:24 7 9 mph 1024.3mb 63f 68f
12:18 7 9 mph 1024.4mb 63f 68f
12:12 8 10 mph 1024.4mb 63f 68f
12:06 9 11 mph 1024.4mb 63f 68f
12:00 8 11 mph 1024.4mb 63f 67f
11:54 8 10 mph 1024.4mb 63f 67f
11:48 7 9 mph 1024.5mb 64f 67f
11:42 8 10 mph 1024.6mb 64f 65f
11:36 8 10 mph 1024.6mb 64f 64f
11:30 7 9 mph 1024.6mb 65f 64f
11:24 7 9 mph 1024.6mb 65f 64f
11:18 7 9 mph 1024.6mb 65f 64f
11:12 6 8 mph 1024.6mb 65f 64f
11:06 7 9 mph 1024.7mb 65f 64f
11:00 6 9 mph 1024.8mb 65f 64f
10:54  -  1 mph 1024.8mb 66f 66f
10:48 1 2 mph 1024.8mb 66f 65f
10:42 1 2 mph 1024.8mb 66f 65f
10:36  -  1 mph 1024.9mb 66f 64f
10:30 2 3 mph 1024.9mb 66f 63f
10:24 3 5 mph 1024.9mb 66f 62f
10:18 5 6 mph 1025mb 66f 62f
10:12 5 6 mph 1024.9mb 66f 62f
10:06 5 7 mph 1025mb 66f 62f
10:00 6 8 mph 1025mb 66f 61f
9:54 7 8 mph 1025mb 66f 61f
9:48 7 9 mph 1025mb 66f 60f
9:42 8 9 mph 1025.1mb 66f 60f
9:36 8 9 mph 1025.1mb 66f 60f
9:30 8 9 mph 1025.2mb 66f 59f
9:24 7 8 mph 1025.2mb 66f 59f
9:18 7 8 mph 1025.3mb 66f 59f
9:12 7 9 mph 1025.3mb 66f 59f
9:06 8 10 mph 1025.3mb 66f 58f